sensor_id;sensor_type;location;lat;lon;timestamp;P1;durP1;ratioP1;P2;durP2;ratioP2
69260;SDS011;56378;52.404;20.816;2023-01-01T00:01:10;9.73;;;4.63;;
69260;SDS011;56378;52.404;20.816;2023-01-01T00:03:38;9.45;;;4.40;;
69260;SDS011;56378;52.404;20.816;2023-01-01T00:06:10;10.60;;;4.43;;
69260;SDS011;56378;52.404;20.816;2023-01-01T00:08:37;10.65;;;5.38;;
69260;SDS011;56378;52.404;20.816;2023-01-01T00:11:04;12.82;;;5.30;;
69260;SDS011;56378;52.404;20.816;2023-01-01T00:13:31;9.60;;;4.70;;
69260;SDS011;56378;52.404;20.816;2023-01-01T00:16:08;9.05;;;4.43;;
69260;SDS011;56378;52.404;20.816;2023-01-01T00:18:36;10.40;;;4.10;;
69260;SDS011;56378;52.404;20.816;2023-01-01T00:23:29;10.25;;;4.45;;
69260;SDS011;56378;52.404;20.816;2023-01-01T00:25:56;10.27;;;4.30;;
69260;SDS011;56378;52.404;20.816;2023-01-01T00:28:22;10.30;;;4.40;;
69260;SDS011;56378;52.404;20.816;2023-01-01T00:30:48;12.38;;;4.30;;
69260;SDS011;56378;52.404;20.816;2023-01-01T00:33:13;8.30;;;4.00;;
69260;SDS011;56378;52.404;20.816;2023-01-01T00:35:39;10.30;;;4.32;;
69260;SDS011;56378;52.404;20.816;2023-01-01T00:38:05;10.00;;;4.20;;
69260;SDS011;56378;52.404;20.816;2023-01-01T00:40:31;7.18;;;3.30;;
69260;SDS011;56378;52.404;20.816;2023-01-01T00:42:56;8.63;;;3.27;;
69260;SDS011;56378;52.404;20.816;2023-01-01T00:45:22;8.73;;;3.60;;
69260;SDS011;56378;52.404;20.816;2023-01-01T00:47:53;6.93;;;2.95;;
69260;SDS011;56378;52.404;20.816;2023-01-01T00:50:19;8.30;;;3.57;;
69260;SDS011;56378;52.404;20.816;2023-01-01T00:52:46;8.10;;;3.45;;
69260;SDS011;56378;52.404;20.816;2023-01-01T00:55:13;7.30;;;3.50;;
69260;SDS011;56378;52.404;20.816;2023-01-01T00:57:39;9.90;;;3.22;;
69260;SDS011;56378;52.404;20.816;2023-01-01T01:00:06;10.55;;;3.72;;
69260;SDS011;56378;52.404;20.816;2023-01-01T01:02:32;9.60;;;3.57;;
69260;SDS011;56378;52.404;20.816;2023-01-01T01:04:58;10.05;;;3.72;;
69260;SDS011;56378;52.404;20.816;2023-01-01T01:07:25;8.90;;;3.58;;
69260;SDS011;56378;52.404;20.816;2023-01-01T01:09:51;9.53;;;3.33;;
69260;SDS011;56378;52.404;20.816;2023-01-01T01:12:16;7.38;;;3.30;;
69260;SDS011;56378;52.404;20.816;2023-01-01T01:14:42;8.60;;;3.73;;
69260;SDS011;56378;52.404;20.816;2023-01-01T01:17:07;7.97;;;3.60;;
69260;SDS011;56378;52.404;20.816;2023-01-01T01:19:33;9.47;;;4.17;;
69260;SDS011;56378;52.404;20.816;2023-01-01T01:21:59;11.20;;;4.03;;
69260;SDS011;56378;52.404;20.816;2023-01-01T01:24:24;10.35;;;4.00;;
69260;SDS011;56378;52.404;20.816;2023-01-01T01:26:51;10.65;;;4.85;;
69260;SDS011;56378;52.404;20.816;2023-01-01T01:29:17;11.33;;;4.87;;
69260;SDS011;56378;52.404;20.816;2023-01-01T01:31:43;10.90;;;4.55;;
69260;SDS011;56378;52.404;20.816;2023-01-01T01:34:09;11.00;;;4.80;;
69260;SDS011;56378;52.404;20.816;2023-01-01T01:36:34;11.23;;;4.90;;
69260;SDS011;56378;52.404;20.816;2023-01-01T01:39:00;11.03;;;4.37;;
69260;SDS011;56378;52.404;20.816;2023-01-01T01:41:26;10.23;;;4.80;;
69260;SDS011;56378;52.404;20.816;2023-01-01T01:46:42;9.77;;;4.28;;
69260;SDS011;56378;52.404;20.816;2023-01-01T01:49:12;10.87;;;4.97;;
69260;SDS011;56378;52.404;20.816;2023-01-01T01:51:41;10.50;;;4.72;;
69260;SDS011;56378;52.404;20.816;2023-01-01T01:54:12;10.32;;;5.15;;
69260;SDS011;56378;52.404;20.816;2023-01-01T01:56:46;14.20;;;4.75;;
69260;SDS011;56378;52.404;20.816;2023-01-01T01:59:16;10.13;;;4.95;;
69260;SDS011;56378;52.404;20.816;2023-01-01T02:01:44;11.90;;;5.33;;
69260;SDS011;56378;52.404;20.816;2023-01-01T02:04:10;12.13;;;4.38;;
69260;SDS011;56378;52.404;20.816;2023-01-01T02:06:37;13.45;;;4.95;;
69260;SDS011;56378;52.404;20.816;2023-01-01T02:09:04;12.30;;;4.80;;
69260;SDS011;56378;52.404;20.816;2023-01-01T02:11:32;10.23;;;4.40;;
69260;SDS011;56378;52.404;20.816;2023-01-01T02:13:58;10.32;;;4.45;;
69260;SDS011;56378;52.404;20.816;2023-01-01T02:16:35;8.60;;;4.20;;
69260;SDS011;56378;52.404;20.816;2023-01-01T02:30:12;11.13;;;3.85;;
69260;SDS011;56378;52.404;20.816;2023-01-01T02:32:49;10.97;;;4.17;;
69260;SDS011;56378;52.404;20.816;2023-01-01T02:35:22;10.65;;;4.20;;
69260;SDS011;56378;52.404;20.816;2023-01-01T02:40:30;9.57;;;4.13;;
69260;SDS011;56378;52.404;20.816;2023-01-01T02:43:00;7.72;;;3.80;;
69260;SDS011;56378;52.404;20.816;2023-01-01T02:45:26;8.07;;;3.40;;
69260;SDS011;56378;52.404;20.816;2023-01-01T02:47:52;9.95;;;3.80;;
69260;SDS011;56378;52.404;20.816;2023-01-01T02:50:18;9.97;;;4.10;;
69260;SDS011;56378;52.404;20.816;2023-01-01T02:52:57;11.00;;;4.03;;
69260;SDS011;56378;52.404;20.816;2023-01-01T03:01:26;11.18;;;4.03;;
69260;SDS011;56378;52.404;20.816;2023-01-01T03:06:50;9.63;;;3.90;;
69260;SDS011;56378;52.404;20.816;2023-01-01T03:14:53;10.38;;;4.10;;
69260;SDS011;56378;52.404;20.816;2023-01-01T03:19:57;10.30;;;3.97;;
69260;SDS011;56378;52.404;20.816;2023-01-01T03:22:28;8.60;;;4.10;;
69260;SDS011;56378;52.404;20.816;2023-01-01T03:27:29;9.75;;;4.18;;
69260;SDS011;56378;52.404;20.816;2023-01-01T03:30:06;10.03;;;4.10;;
69260;SDS011;56378;52.404;20.816;2023-01-01T03:32:54;8.48;;;3.90;;
69260;SDS011;56378;52.404;20.816;2023-01-01T03:35:34;8.15;;;3.40;;
69260;SDS011;56378;52.404;20.816;2023-01-01T03:38:09;9.27;;;4.28;;
69260;SDS011;56378;52.404;20.816;2023-01-01T03:40:40;8.85;;;4.15;;
69260;SDS011;56378;52.404;20.816;2023-01-01T03:43:53;8.60;;;3.50;;
69260;SDS011;56378;52.404;20.816;2023-01-01T03:45:58;10.32;;;4.18;;
69260;SDS011;56378;52.404;20.816;2023-01-01T03:48:25;10.65;;;3.53;;
69260;SDS011;56378;52.404;20.816;2023-01-01T03:53:38;8.25;;;3.53;;
69260;SDS011;56378;52.404;20.816;2023-01-01T03:56:10;8.57;;;3.83;;
69260;SDS011;56378;52.404;20.816;2023-01-01T03:58:46;12.32;;;3.47;;
69260;SDS011;56378;52.404;20.816;2023-01-01T04:01:22;7.72;;;3.20;;
69260;SDS011;56378;52.404;20.816;2023-01-01T04:03:54;8.73;;;3.23;;
69260;SDS011;56378;52.404;20.816;2023-01-01T04:06:21;8.75;;;3.38;;
69260;SDS011;56378;52.404;20.816;2023-01-01T04:08:47;8.57;;;3.67;;
69260;SDS011;56378;52.404;20.816;2023-01-01T04:11:19;8.75;;;3.65;;
69260;SDS011;56378;52.404;20.816;2023-01-01T04:14:07;10.23;;;3.45;;
69260;SDS011;56378;52.404;20.816;2023-01-01T04:16:33;7.20;;;3.00;;
69260;SDS011;56378;52.404;20.816;2023-01-01T04:18:59;7.72;;;3.42;;
69260;SDS011;56378;52.404;20.816;2023-01-01T04:21:24;8.40;;;3.03;;
69260;SDS011;56378;52.404;20.816;2023-01-01T04:23:50;8.17;;;3.10;;
69260;SDS011;56378;52.404;20.816;2023-01-01T04:26:16;9.23;;;3.72;;
69260;SDS011;56378;52.404;20.816;2023-01-01T04:28:42;7.90;;;3.60;;
69260;SDS011;56378;52.404;20.816;2023-01-01T04:31:08;8.50;;;3.40;;
69260;SDS011;56378;52.404;20.816;2023-01-01T04:33:34;7.05;;;3.38;;
69260;SDS011;56378;52.404;20.816;2023-01-01T04:36:07;7.40;;;3.20;;
69260;SDS011;56378;52.404;20.816;2023-01-01T04:38:34;7.30;;;3.20;;
69260;SDS011;56378;52.404;20.816;2023-01-01T04:41:00;9.30;;;3.40;;
69260;SDS011;56378;52.404;20.816;2023-01-01T04:43:26;8.63;;;3.63;;
69260;SDS011;56378;52.404;20.816;2023-01-01T04:46:00;7.00;;;3.20;;
69260;SDS011;56378;52.404;20.816;2023-01-01T04:48:27;6.78;;;3.00;;
69260;SDS011;56378;52.404;20.816;2023-01-01T04:50:55;9.45;;;3.97;;
69260;SDS011;56378;52.404;20.816;2023-01-01T04:53:21;8.67;;;3.50;;
69260;SDS011;56378;52.404;20.816;2023-01-01T04:55:47;7.60;;;3.10;;
69260;SDS011;56378;52.404;20.816;2023-01-01T04:58:13;7.00;;;2.90;;
69260;SDS011;56378;52.404;20.816;2023-01-01T05:00:38;7.13;;;3.08;;
69260;SDS011;56378;52.404;20.816;2023-01-01T05:03:04;7.87;;;3.20;;
69260;SDS011;56378;52.404;20.816;2023-01-01T05:05:30;8.07;;;3.05;;
69260;SDS011;56378;52.404;20.816;2023-01-01T05:07:55;7.33;;;3.03;;
69260;SDS011;56378;52.404;20.816;2023-01-01T05:10:21;8.02;;;3.33;;
69260;SDS011;56378;52.404;20.816;2023-01-01T05:12:47;6.80;;;3.20;;
69260;SDS011;56378;52.404;20.816;2023-01-01T05:15:12;7.43;;;2.65;;
69260;SDS011;56378;52.404;20.816;2023-01-01T05:17:38;8.80;;;3.77;;
69260;SDS011;56378;52.404;20.816;2023-01-01T05:20:04;6.97;;;2.60;;
69260;SDS011;56378;52.404;20.816;2023-01-01T05:22:30;7.10;;;2.90;;
69260;SDS011;56378;52.404;20.816;2023-01-01T05:24:55;9.13;;;3.17;;
69260;SDS011;56378;52.404;20.816;2023-01-01T05:27:21;8.50;;;3.37;;
69260;SDS011;56378;52.404;20.816;2023-01-01T05:29:46;8.98;;;2.90;;
69260;SDS011;56378;52.404;20.816;2023-01-01T05:32:12;8.47;;;2.87;;
69260;SDS011;56378;52.404;20.816;2023-01-01T05:34:38;8.32;;;3.03;;
69260;SDS011;56378;52.404;20.816;2023-01-01T05:37:03;7.47;;;2.60;;
69260;SDS011;56378;52.404;20.816;2023-01-01T05:39:29;7.37;;;2.50;;
69260;SDS011;56378;52.404;20.816;2023-01-01T05:41:55;6.65;;;2.50;;
69260;SDS011;56378;52.404;20.816;2023-01-01T05:44:21;5.75;;;2.38;;
69260;SDS011;56378;52.404;20.816;2023-01-01T05:46:46;6.90;;;2.50;;
69260;SDS011;56378;52.404;20.816;2023-01-01T05:49:12;5.80;;;2.63;;
69260;SDS011;56378;52.404;20.816;2023-01-01T05:51:38;7.20;;;2.77;;
69260;SDS011;56378;52.404;20.816;2023-01-01T05:54:04;6.50;;;2.70;;
69260;SDS011;56378;52.404;20.816;2023-01-01T05:56:29;7.60;;;2.50;;
69260;SDS011;56378;52.404;20.816;2023-01-01T05:58:55;8.02;;;2.65;;
69260;SDS011;56378;52.404;20.816;2023-01-01T06:01:22;6.83;;;2.50;;
69260;SDS011;56378;52.404;20.816;2023-01-01T06:03:51;7.35;;;2.33;;
69260;SDS011;56378;52.404;20.816;2023-01-01T06:06:19;6.72;;;2.47;;
69260;SDS011;56378;52.404;20.816;2023-01-01T06:08:53;6.25;;;2.22;;
69260;SDS011;56378;52.404;20.816;2023-01-01T06:11:21;6.87;;;2.20;;
69260;SDS011;56378;52.404;20.816;2023-01-01T06:13:50;6.47;;;2.47;;
69260;SDS011;56378;52.404;20.816;2023-01-01T06:16:16;7.43;;;2.67;;
69260;SDS011;56378;52.404;20.816;2023-01-01T06:18:42;7.50;;;2.20;;
69260;SDS011;56378;52.404;20.816;2023-01-01T06:23:35;6.35;;;2.50;;
69260;SDS011;56378;52.404;20.816;2023-01-01T06:26:05;6.03;;;2.50;;
69260;SDS011;56378;52.404;20.816;2023-01-01T06:28:35;5.93;;;2.37;;
69260;SDS011;56378;52.404;20.816;2023-01-01T06:31:02;7.60;;;2.30;;
69260;SDS011;56378;52.404;20.816;2023-01-01T06:33:29;5.72;;;2.15;;
69260;SDS011;56378;52.404;20.816;2023-01-01T06:35:56;5.80;;;2.47;;
69260;SDS011;56378;52.404;20.816;2023-01-01T06:38:22;6.18;;;2.50;;
69260;SDS011;56378;52.404;20.816;2023-01-01T06:40:56;7.63;;;3.00;;
69260;SDS011;56378;52.404;20.816;2023-01-01T06:43:23;7.18;;;2.75;;
69260;SDS011;56378;52.404;20.816;2023-01-01T06:45:57;7.35;;;2.50;;
69260;SDS011;56378;52.404;20.816;2023-01-01T06:48:43;5.70;;;2.33;;
69260;SDS011;56378;52.404;20.816;2023-01-01T06:51:11;5.20;;;2.20;;
69260;SDS011;56378;52.404;20.816;2023-01-01T06:53:39;7.47;;;2.97;;
69260;SDS011;56378;52.404;20.816;2023-01-01T06:56:05;13.52;;;3.33;;
69260;SDS011;56378;52.404;20.816;2023-01-01T06:58:31;7.05;;;2.60;;
69260;SDS011;56378;52.404;20.816;2023-01-01T07:01:08;6.57;;;2.33;;
69260;SDS011;56378;52.404;20.816;2023-01-01T07:03:39;7.10;;;2.30;;
69260;SDS011;56378;52.404;20.816;2023-01-01T07:06:07;7.63;;;2.33;;
69260;SDS011;56378;52.404;20.816;2023-01-01T07:08:33;5.13;;;2.35;;
69260;SDS011;56378;52.404;20.816;2023-01-01T07:10:59;5.50;;;2.20;;
69260;SDS011;56378;52.404;20.816;2023-01-01T07:13:26;7.85;;;2.53;;
69260;SDS011;56378;52.404;20.816;2023-01-01T07:15:53;7.83;;;2.53;;
69260;SDS011;56378;52.404;20.816;2023-01-01T07:18:20;7.95;;;2.78;;
69260;SDS011;56378;52.404;20.816;2023-01-01T07:20:48;6.55;;;2.40;;
69260;SDS011;56378;52.404;20.816;2023-01-01T07:23:17;7.32;;;2.75;;
69260;SDS011;56378;52.404;20.816;2023-01-01T07:25:43;4.87;;;2.30;;
69260;SDS011;56378;52.404;20.816;2023-01-01T07:28:09;6.47;;;2.03;;
69260;SDS011;56378;52.404;20.816;2023-01-01T07:30:36;4.88;;;2.03;;
69260;SDS011;56378;52.404;20.816;2023-01-01T07:33:02;6.13;;;2.13;;
69260;SDS011;56378;52.404;20.816;2023-01-01T07:35:27;6.30;;;2.40;;
69260;SDS011;56378;52.404;20.816;2023-01-01T07:37:53;6.40;;;2.40;;
69260;SDS011;56378;52.404;20.816;2023-01-01T07:40:19;5.88;;;2.42;;
69260;SDS011;56378;52.404;20.816;2023-01-01T07:42:44;5.50;;;2.40;;
69260;SDS011;56378;52.404;20.816;2023-01-01T07:45:10;6.07;;;2.40;;
69260;SDS011;56378;52.404;20.816;2023-01-01T07:47:37;5.43;;;2.03;;
69260;SDS011;56378;52.404;20.816;2023-01-01T07:50:03;6.40;;;2.45;;
69260;SDS011;56378;52.404;20.816;2023-01-01T07:52:30;9.65;;;2.70;;
69260;SDS011;56378;52.404;20.816;2023-01-01T07:54:55;6.97;;;2.70;;
69260;SDS011;56378;52.404;20.816;2023-01-01T07:57:21;6.25;;;2.35;;
69260;SDS011;56378;52.404;20.816;2023-01-01T07:59:47;8.47;;;2.50;;
69260;SDS011;56378;52.404;20.816;2023-01-01T08:02:12;6.97;;;2.38;;
69260;SDS011;56378;52.404;20.816;2023-01-01T08:04:38;4.70;;;2.10;;
69260;SDS011;56378;52.404;20.816;2023-01-01T08:07:04;7.05;;;2.30;;
69260;SDS011;56378;52.404;20.816;2023-01-01T08:09:30;7.63;;;2.70;;
69260;SDS011;56378;52.404;20.816;2023-01-01T08:11:55;6.90;;;2.45;;
69260;SDS011;56378;52.404;20.816;2023-01-01T08:14:22;7.30;;;2.45;;
69260;SDS011;56378;52.404;20.816;2023-01-01T08:16:49;7.83;;;2.40;;
69260;SDS011;56378;52.404;20.816;2023-01-01T08:19:15;5.15;;;1.90;;
69260;SDS011;56378;52.404;20.816;2023-01-01T08:21:41;8.20;;;2.40;;
69260;SDS011;56378;52.404;20.816;2023-01-01T08:24:06;8.17;;;2.43;;
69260;SDS011;56378;52.404;20.816;2023-01-01T08:26:33;5.57;;;2.40;;
69260;SDS011;56378;52.404;20.816;2023-01-01T08:29:04;7.95;;;2.72;;
69260;SDS011;56378;52.404;20.816;2023-01-01T08:31:31;8.77;;;2.60;;
69260;SDS011;56378;52.404;20.816;2023-01-01T08:33:57;10.32;;;2.55;;
69260;SDS011;56378;52.404;20.816;2023-01-01T08:36:23;7.65;;;2.35;;
69260;SDS011;56378;52.404;20.816;2023-01-01T08:38:49;9.68;;;2.42;;
69260;SDS011;56378;52.404;20.816;2023-01-01T08:41:15;7.90;;;2.30;;
69260;SDS011;56378;52.404;20.816;2023-01-01T08:43:40;10.65;;;2.70;;
69260;SDS011;56378;52.404;20.816;2023-01-01T08:46:06;8.43;;;2.70;;
69260;SDS011;56378;52.404;20.816;2023-01-01T08:48:32;10.33;;;2.70;;
69260;SDS011;56378;52.404;20.816;2023-01-01T08:50:58;7.63;;;2.43;;
69260;SDS011;56378;52.404;20.816;2023-01-01T08:53:25;9.45;;;2.42;;
69260;SDS011;56378;52.404;20.816;2023-01-01T08:55:56;9.45;;;2.58;;
69260;SDS011;56378;52.404;20.816;2023-01-01T08:58:29;9.77;;;2.50;;
69260;SDS011;56378;52.404;20.816;2023-01-01T09:00:55;7.47;;;2.40;;
69260;SDS011;56378;52.404;20.816;2023-01-01T09:03:21;8.80;;;2.55;;
69260;SDS011;56378;52.404;20.816;2023-01-01T09:05:47;8.57;;;2.50;;
69260;SDS011;56378;52.404;20.816;2023-01-01T09:08:13;10.57;;;2.93;;
69260;SDS011;56378;52.404;20.816;2023-01-01T09:10:40;13.07;;;2.70;;
69260;SDS011;56378;52.404;20.816;2023-01-01T09:13:09;8.65;;;2.47;;
69260;SDS011;56378;52.404;20.816;2023-01-01T09:15:36;8.43;;;2.90;;
69260;SDS011;56378;52.404;20.816;2023-01-01T09:18:02;8.93;;;2.53;;
69260;SDS011;56378;52.404;20.816;2023-01-01T09:20:28;10.20;;;2.50;;
69260;SDS011;56378;52.404;20.816;2023-01-01T09:22:53;12.97;;;2.47;;
69260;SDS011;56378;52.404;20.816;2023-01-01T09:25:19;8.95;;;2.42;;
69260;SDS011;56378;52.404;20.816;2023-01-01T09:27:45;8.67;;;2.70;;
69260;SDS011;56378;52.404;20.816;2023-01-01T09:30:11;12.77;;;2.45;;
69260;SDS011;56378;52.404;20.816;2023-01-01T09:32:37;9.48;;;2.80;;
69260;SDS011;56378;52.404;20.816;2023-01-01T09:35:03;8.73;;;2.40;;
69260;SDS011;56378;52.404;20.816;2023-01-01T09:37:29;8.48;;;2.67;;
69260;SDS011;56378;52.404;20.816;2023-01-01T09:39:55;7.68;;;2.60;;
69260;SDS011;56378;52.404;20.816;2023-01-01T09:42:25;9.57;;;2.40;;
69260;SDS011;56378;52.404;20.816;2023-01-01T09:45:22;9.93;;;2.40;;
69260;SDS011;56378;52.404;20.816;2023-01-01T09:47:48;6.90;;;1.92;;
69260;SDS011;56378;52.404;20.816;2023-01-01T09:50:20;9.48;;;2.20;;
69260;SDS011;56378;52.404;20.816;2023-01-01T09:52:55;7.68;;;2.03;;
69260;SDS011;56378;52.404;20.816;2023-01-01T09:55:41;7.55;;;2.35;;
69260;SDS011;56378;52.404;20.816;2023-01-01T09:58:11;8.73;;;2.07;;
69260;SDS011;56378;52.404;20.816;2023-01-01T10:00:38;13.15;;;2.40;;
69260;SDS011;56378;52.404;20.816;2023-01-01T10:03:26;10.25;;;2.45;;
69260;SDS011;56378;52.404;20.816;2023-01-01T10:06:19;14.30;;;2.95;;
69260;SDS011;56378;52.404;20.816;2023-01-01T10:14:03;9.93;;;2.25;;
69260;SDS011;56378;52.404;20.816;2023-01-01T10:16:46;10.90;;;2.22;;
69260;SDS011;56378;52.404;20.816;2023-01-01T10:21:54;10.85;;;3.17;;
69260;SDS011;56378;52.404;20.816;2023-01-01T10:27:00;8.40;;;2.17;;
69260;SDS011;56378;52.404;20.816;2023-01-01T10:29:41;8.57;;;2.95;;
69260;SDS011;56378;52.404;20.816;2023-01-01T10:32:20;6.53;;;2.40;;
69260;SDS011;56378;52.404;20.816;2023-01-01T10:34:57;6.85;;;2.30;;
69260;SDS011;56378;52.404;20.816;2023-01-01T10:37:25;10.53;;;2.70;;
69260;SDS011;56378;52.404;20.816;2023-01-01T10:40:09;11.55;;;2.90;;
69260;SDS011;56378;52.404;20.816;2023-01-01T10:42:37;7.72;;;2.45;;
69260;SDS011;56378;52.404;20.816;2023-01-01T10:45:03;10.07;;;2.90;;
69260;SDS011;56378;52.404;20.816;2023-01-01T10:47:29;11.10;;;3.00;;
69260;SDS011;56378;52.404;20.816;2023-01-01T10:52:37;8.60;;;2.95;;
69260;SDS011;56378;52.404;20.816;2023-01-01T10:55:05;11.30;;;3.00;;
69260;SDS011;56378;52.404;20.816;2023-01-01T10:57:43;11.43;;;2.80;;
69260;SDS011;56378;52.404;20.816;2023-01-01T11:00:22;9.00;;;2.60;;
69260;SDS011;56378;52.404;20.816;2023-01-01T11:08:48;17.37;;;4.07;;
69260;SDS011;56378;52.404;20.816;2023-01-01T11:11:26;17.60;;;2.80;;
69260;SDS011;56378;52.404;20.816;2023-01-01T11:13:56;11.10;;;2.83;;
69260;SDS011;56378;52.404;20.816;2023-01-01T11:16:25;13.25;;;3.00;;
69260;SDS011;56378;52.404;20.816;2023-01-01T11:18:58;10.82;;;3.28;;
69260;SDS011;56378;52.404;20.816;2023-01-01T11:21:29;8.40;;;2.53;;
69260;SDS011;56378;52.404;20.816;2023-01-01T11:26:43;12.00;;;3.08;;
69260;SDS011;56378;52.404;20.816;2023-01-01T11:31:41;8.90;;;2.70;;
69260;SDS011;56378;52.404;20.816;2023-01-01T11:34:26;9.77;;;2.80;;
69260;SDS011;56378;52.404;20.816;2023-01-01T11:39:33;10.65;;;3.20;;
69260;SDS011;56378;52.404;20.816;2023-01-01T11:42:01;11.50;;;2.97;;
69260;SDS011;56378;52.404;20.816;2023-01-01T11:49:58;12.20;;;2.78;;
69260;SDS011;56378;52.404;20.816;2023-01-01T11:52:34;10.52;;;2.70;;
69260;SDS011;56378;52.404;20.816;2023-01-01T11:55:31;8.55;;;2.80;;
69260;SDS011;56378;52.404;20.816;2023-01-01T11:58:15;10.80;;;2.70;;
69260;SDS011;56378;52.404;20.816;2023-01-01T12:01:35;9.77;;;2.50;;
69260;SDS011;56378;52.404;20.816;2023-01-01T12:06:15;8.65;;;2.70;;
69260;SDS011;56378;52.404;20.816;2023-01-01T12:11:26;8.13;;;3.10;;
69260;SDS011;56378;52.404;20.816;2023-01-01T12:16:55;10.05;;;2.97;;
69260;SDS011;56378;52.404;20.816;2023-01-01T12:20:27;11.50;;;2.72;;
69260;SDS011;56378;52.404;20.816;2023-01-01T12:22:24;7.35;;;2.80;;
69260;SDS011;56378;52.404;20.816;2023-01-01T12:24:50;9.38;;;2.72;;
69260;SDS011;56378;52.404;20.816;2023-01-01T12:46:08;7.30;;;2.75;;
69260;SDS011;56378;52.404;20.816;2023-01-01T12:57:28;8.32;;;2.50;;
69260;SDS011;56378;52.404;20.816;2023-01-01T13:00:02;7.43;;;2.50;;
69260;SDS011;56378;52.404;20.816;2023-01-01T13:02:36;7.60;;;2.42;;
69260;SDS011;56378;52.404;20.816;2023-01-01T13:08:07;10.77;;;2.17;;
69260;SDS011;56378;52.404;20.816;2023-01-01T13:10:35;8.73;;;2.38;;
69260;SDS011;56378;52.404;20.816;2023-01-01T13:13:03;6.47;;;2.22;;
69260;SDS011;56378;52.404;20.816;2023-01-01T13:18:15;9.97;;;2.10;;
69260;SDS011;56378;52.404;20.816;2023-01-01T13:20:46;8.63;;;2.42;;
69260;SDS011;56378;52.404;20.816;2023-01-01T13:39:54;9.15;;;2.40;;
69260;SDS011;56378;52.404;20.816;2023-01-01T14:02:22;9.23;;;3.08;;
69260;SDS011;56378;52.404;20.816;2023-01-01T14:04:59;6.70;;;2.45;;
69260;SDS011;56378;52.404;20.816;2023-01-01T14:07:42;8.95;;;2.67;;
69260;SDS011;56378;52.404;20.816;2023-01-01T14:15:33;7.93;;;2.47;;
69260;SDS011;56378;52.404;20.816;2023-01-01T14:18:04;7.85;;;2.67;;
69260;SDS011;56378;52.404;20.816;2023-01-01T14:20:36;10.75;;;2.80;;
69260;SDS011;56378;52.404;20.816;2023-01-01T14:25:56;6.80;;;2.43;;
69260;SDS011;56378;52.404;20.816;2023-01-01T14:28:32;8.50;;;2.58;;
69260;SDS011;56378;52.404;20.816;2023-01-01T14:30:59;8.57;;;2.72;;
69260;SDS011;56378;52.404;20.816;2023-01-01T14:33:31;9.77;;;2.70;;
69260;SDS011;56378;52.404;20.816;2023-01-01T14:35:59;10.70;;;3.90;;
69260;SDS011;56378;52.404;20.816;2023-01-01T14:38:26;10.23;;;4.97;;
69260;SDS011;56378;52.404;20.816;2023-01-01T14:41:28;9.70;;;4.40;;
69260;SDS011;56378;52.404;20.816;2023-01-01T14:43:57;10.23;;;3.90;;
69260;SDS011;56378;52.404;20.816;2023-01-01T14:46:44;11.98;;;5.88;;
69260;SDS011;56378;52.404;20.816;2023-01-01T14:49:23;12.27;;;6.65;;
69260;SDS011;56378;52.404;20.816;2023-01-01T14:52:00;11.80;;;4.17;;
69260;SDS011;56378;52.404;20.816;2023-01-01T14:54:30;8.52;;;3.40;;
69260;SDS011;56378;52.404;20.816;2023-01-01T14:56:59;9.40;;;3.72;;
69260;SDS011;56378;52.404;20.816;2023-01-01T15:04:36;11.17;;;3.83;;
69260;SDS011;56378;52.404;20.816;2023-01-01T15:07:03;11.15;;;3.70;;
69260;SDS011;56378;52.404;20.816;2023-01-01T15:09:29;9.15;;;3.63;;
69260;SDS011;56378;52.404;20.816;2023-01-01T15:11:56;9.95;;;4.30;;
69260;SDS011;56378;52.404;20.816;2023-01-01T15:17:07;12.20;;;4.23;;
69260;SDS011;56378;52.404;20.816;2023-01-01T15:19:35;13.00;;;4.45;;
69260;SDS011;56378;52.404;20.816;2023-01-01T15:24:50;13.25;;;4.93;;
69260;SDS011;56378;52.404;20.816;2023-01-01T15:27:19;9.80;;;4.23;;
69260;SDS011;56378;52.404;20.816;2023-01-01T15:29:51;9.10;;;3.73;;
69260;SDS011;56378;52.404;20.816;2023-01-01T15:32:27;11.05;;;3.90;;
69260;SDS011;56378;52.404;20.816;2023-01-01T15:34:57;10.85;;;3.90;;
69260;SDS011;56378;52.404;20.816;2023-01-01T15:37:32;12.20;;;4.10;;
69260;SDS011;56378;52.404;20.816;2023-01-01T15:40:27;9.88;;;3.88;;
69260;SDS011;56378;52.404;20.816;2023-01-01T15:47:59;11.70;;;4.00;;
69260;SDS011;56378;52.404;20.816;2023-01-01T15:55:49;12.10;;;4.60;;
69260;SDS011;56378;52.404;20.816;2023-01-01T15:58:33;11.43;;;5.10;;
69260;SDS011;56378;52.404;20.816;2023-01-01T16:01:03;15.18;;;5.32;;
69260;SDS011;56378;52.404;20.816;2023-01-01T16:03:32;12.23;;;5.40;;
69260;SDS011;56378;52.404;20.816;2023-01-01T16:05:59;14.63;;;5.13;;
69260;SDS011;56378;52.404;20.816;2023-01-01T16:08:25;13.53;;;4.90;;
69260;SDS011;56378;52.404;20.816;2023-01-01T16:10:51;13.07;;;5.30;;
69260;SDS011;56378;52.404;20.816;2023-01-01T16:13:17;17.83;;;6.20;;
69260;SDS011;56378;52.404;20.816;2023-01-01T16:15:59;14.63;;;5.22;;
69260;SDS011;56378;52.404;20.816;2023-01-01T16:18:27;11.87;;;5.10;;
69260;SDS011;56378;52.404;20.816;2023-01-01T16:20:54;15.98;;;6.88;;
69260;SDS011;56378;52.404;20.816;2023-01-01T16:23:20;15.55;;;6.30;;
69260;SDS011;56378;52.404;20.816;2023-01-01T16:25:46;11.43;;;4.65;;
69260;SDS011;56378;52.404;20.816;2023-01-01T16:28:12;12.33;;;5.10;;
69260;SDS011;56378;52.404;20.816;2023-01-01T16:30:38;10.45;;;4.68;;
69260;SDS011;56378;52.404;20.816;2023-01-01T16:33:05;11.80;;;4.40;;
69260;SDS011;56378;52.404;20.816;2023-01-01T16:35:40;10.97;;;4.30;;
69260;SDS011;56378;52.404;20.816;2023-01-01T16:38:06;11.73;;;4.32;;
69260;SDS011;56378;52.404;20.816;2023-01-01T16:40:32;14.05;;;5.00;;
69260;SDS011;56378;52.404;20.816;2023-01-01T16:42:58;12.70;;;4.90;;
69260;SDS011;56378;52.404;20.816;2023-01-01T16:45:24;10.95;;;4.45;;
69260;SDS011;56378;52.404;20.816;2023-01-01T16:47:49;12.87;;;4.93;;
69260;SDS011;56378;52.404;20.816;2023-01-01T16:50:15;11.25;;;4.93;;
69260;SDS011;56378;52.404;20.816;2023-01-01T16:52:41;12.67;;;4.77;;
69260;SDS011;56378;52.404;20.816;2023-01-01T16:55:07;13.35;;;5.00;;
69260;SDS011;56378;52.404;20.816;2023-01-01T16:57:33;10.82;;;4.80;;
69260;SDS011;56378;52.404;20.816;2023-01-01T16:59:59;14.65;;;5.20;;
69260;SDS011;56378;52.404;20.816;2023-01-01T17:02:25;11.40;;;4.57;;
69260;SDS011;56378;52.404;20.816;2023-01-01T17:04:53;9.05;;;4.45;;
69260;SDS011;56378;52.404;20.816;2023-01-01T17:07:18;12.25;;;5.05;;
69260;SDS011;56378;52.404;20.816;2023-01-01T17:09:44;13.43;;;5.30;;
69260;SDS011;56378;52.404;20.816;2023-01-01T17:12:10;12.23;;;4.93;;
69260;SDS011;56378;52.404;20.816;2023-01-01T17:14:35;9.63;;;4.47;;
69260;SDS011;56378;52.404;20.816;2023-01-01T17:17:01;16.75;;;7.00;;
69260;SDS011;56378;52.404;20.816;2023-01-01T17:19:27;16.93;;;7.67;;
69260;SDS011;56378;52.404;20.816;2023-01-01T17:21:53;16.80;;;6.82;;
69260;SDS011;56378;52.404;20.816;2023-01-01T17:24:19;16.93;;;6.17;;
69260;SDS011;56378;52.404;20.816;2023-01-01T17:26:46;14.00;;;6.50;;
69260;SDS011;56378;52.404;20.816;2023-01-01T17:29:15;15.43;;;6.53;;
69260;SDS011;56378;52.404;20.816;2023-01-01T17:31:41;15.53;;;5.90;;
69260;SDS011;56378;52.404;20.816;2023-01-01T17:34:08;15.27;;;6.78;;
69260;SDS011;56378;52.404;20.816;2023-01-01T17:36:36;16.83;;;6.68;;
69260;SDS011;56378;52.404;20.816;2023-01-01T17:39:02;16.05;;;6.70;;
69260;SDS011;56378;52.404;20.816;2023-01-01T17:41:28;24.33;;;8.13;;
69260;SDS011;56378;52.404;20.816;2023-01-01T17:43:54;17.67;;;6.88;;